createdAt,value
2017-12-01T00:00:57.651Z,19.00
2017-12-01T00:03:26.126Z,12.70
2017-12-01T00:05:54.404Z,22.97
2017-12-01T00:08:23.232Z,14.73
2017-12-01T00:10:50.725Z,14.07
2017-12-01T00:13:18.227Z,14.93
2017-12-01T00:15:45.739Z,13.90
2017-12-01T00:18:13.223Z,17.70
2017-12-01T00:20:41.517Z,18.00
2017-12-01T00:23:09.027Z,12.80
2017-12-01T00:25:36.528Z,13.17
2017-12-01T00:28:04.898Z,15.33
2017-12-01T00:30:33.146Z,21.70
2017-12-01T00:33:00.634Z,15.33
2017-12-01T00:35:28.894Z,20.40
2017-12-01T00:37:56.415Z,15.70
2017-12-01T00:40:24.725Z,25.30
2017-12-01T00:42:52.968Z,22.60
2017-12-01T00:45:20.455Z,26.87
2017-12-01T00:47:48.718Z,26.90
2017-12-01T00:50:16.701Z,12.57
2017-12-01T00:52:44.175Z,26.27
2017-12-01T00:55:11.686Z,24.60
2017-12-01T00:57:39.171Z,22.60
2017-12-01T01:00:07.439Z,21.80
2017-12-01T01:02:34.958Z,18.37
2017-12-01T01:05:02.537Z,22.00
2017-12-01T01:07:30.039Z,18.53
2017-12-01T01:09:57.566Z,38.90
2017-12-01T01:12:25.064Z,21.63
2017-12-01T01:14:52.599Z,21.80
2017-12-01T01:17:20.868Z,42.37
2017-12-01T01:19:48.366Z,38.93
2017-12-01T01:22:16.771Z,37.50
2017-12-01T01:24:44.519Z,18.13
2017-12-01T01:27:12.017Z,18.70
2017-12-01T01:29:39.604Z,20.40
2017-12-01T01:32:07.866Z,37.83
2017-12-01T01:34:36.126Z,38.87
2017-12-01T01:37:04.519Z,54.17
2017-12-01T01:39:32.783Z,25.90
2017-12-01T01:42:00.298Z,20.43
2017-12-01T01:44:27.982Z,22.87
2017-12-01T01:46:55.480Z,16.90
2017-12-01T01:49:24.619Z,24.83
2017-12-01T01:51:52.957Z,22.97
2017-12-01T01:54:21.211Z,30.07
2017-12-01T01:56:49.476Z,36.30
2017-12-01T01:59:17.061Z,19.10
2017-12-01T02:01:45.328Z,48.30
2017-12-01T02:04:13.618Z,61.73
2017-12-01T02:06:41.897Z,57.27
2017-12-01T02:09:10.175Z,24.27
2017-12-01T02:11:37.664Z,170.33
2017-12-01T02:14:05.189Z,22.30
2017-12-01T02:16:33.451Z,226.93
2017-12-01T02:19:01.742Z,142.10
2017-12-01T02:21:29.250Z,130.80
2017-12-01T02:23:56.810Z,241.33
2017-12-01T02:26:25.051Z,301.60
2017-12-01T02:28:52.598Z,42.83
2017-12-01T02:31:20.103Z,131.70
2017-12-01T02:33:47.595Z,130.73
2017-12-01T02:36:16.704Z,72.67
2017-12-01T02:38:44.980Z,34.97
2017-12-01T02:41:12.503Z,127.67
2017-12-01T02:43:40.001Z,364.83
2017-12-01T02:46:07.521Z,530.87
2017-12-01T02:48:35.021Z,222.90
2017-12-01T02:51:02.533Z,170.07
2017-12-01T02:53:30.249Z,49.30
2017-12-01T02:55:57.750Z,44.97
2017-12-01T02:58:25.375Z,69.87
2017-12-01T03:00:53.467Z,53.73
2017-12-01T03:03:20.981Z,54.50
2017-12-01T03:05:48.626Z,40.70
2017-12-01T03:08:16.940Z,318.70
2017-12-01T03:10:44.504Z,89.47
2017-12-01T03:13:12.719Z,60.97
2017-12-01T03:15:40.215Z,50.27
2017-12-01T03:18:07.729Z,29.37
2017-12-01T03:20:35.240Z,33.17
2017-12-01T03:23:02.732Z,89.87
2017-12-01T03:25:30.220Z,49.03
2017-12-01T03:27:58.495Z,39.10
2017-12-01T03:30:26.773Z,29.97
2017-12-01T03:32:55.057Z,79.70
2017-12-01T03:35:23.329Z,89.23
2017-12-01T03:37:50.892Z,81.67
2017-12-01T03:40:19.156Z,34.50
2017-12-01T03:42:47.457Z,80.70
2017-12-01T03:45:15.033Z,59.67
2017-12-01T03:47:42.665Z,35.80
2017-12-01T03:50:11.829Z,45.03
2017-12-01T03:52:39.320Z,41.90
2017-12-01T03:55:07.600Z,43.73
2017-12-01T03:57:35.090Z,65.20
2017-12-01T04:00:02.618Z,32.07
2017-12-01T04:02:30.471Z,109.83
2017-12-01T04:04:58.741Z,39.27
2017-12-01T04:07:26.266Z,55.37
2017-12-01T04:09:53.755Z,55.43
2017-12-01T04:12:22.012Z,43.63
2017-12-01T04:14:49.510Z,39.57
2017-12-01T04:17:17.015Z,27.40
2017-12-01T04:19:44.555Z,33.87
2017-12-01T04:22:12.492Z,28.70
2017-12-01T04:24:40.039Z,29.73
2017-12-01T04:27:08.310Z,21.97
2017-12-01T04:29:36.577Z,28.83
2017-12-01T04:32:04.885Z,27.60
2017-12-01T04:34:33.151Z,32.83
2017-12-01T04:37:00.660Z,33.60
2017-12-01T04:39:28.158Z,33.07
2017-12-01T04:41:56.417Z,58.87
2017-12-01T04:44:24.403Z,23.47
2017-12-01T04:46:52.655Z,23.70
2017-12-01T04:49:20.157Z,23.30
2017-12-01T04:51:47.952Z,28.60
2017-12-01T04:54:15.454Z,21.57
2017-12-01T04:56:43.728Z,41.17
2017-12-01T04:59:11.997Z,35.40
2017-12-01T05:01:40.284Z,20.50
2017-12-01T05:04:08.539Z,24.37
2017-12-01T05:06:36.035Z,30.47
2017-12-01T05:09:04.477Z,23.40
2017-12-01T05:11:31.961Z,24.07
2017-12-01T05:13:59.483Z,18.00
2017-12-01T05:16:26.984Z,19.93
2017-12-01T05:18:54.491Z,38.60
2017-12-01T05:21:22.722Z,17.60
2017-12-01T05:23:50.437Z,18.80
2017-12-01T05:26:17.954Z,18.80
2017-12-01T05:28:45.447Z,17.63
2017-12-01T05:31:12.962Z,25.63
2017-12-01T05:33:40.492Z,21.90
2017-12-01T05:36:08.765Z,21.70
2017-12-01T05:38:37.057Z,29.73
2017-12-01T05:41:04.560Z,21.40
2017-12-01T05:43:33.282Z,27.50
2017-12-01T05:46:01.579Z,25.60
2017-12-01T05:48:29.991Z,66.70
2017-12-01T05:50:57.478Z,25.53
2017-12-01T05:53:25.005Z,35.70
2017-12-01T05:55:52.509Z,25.87
2017-12-01T05:58:20.766Z,29.77
2017-12-01T06:00:48.289Z,29.07
2017-12-01T06:03:15.818Z,54.83
2017-12-01T06:05:43.302Z,41.40
2017-12-01T06:08:10.817Z,39.03
2017-12-01T06:10:39.094Z,32.73
2017-12-01T06:13:07.359Z,40.40
2017-12-01T06:15:34.855Z,32.00
2017-12-01T06:18:02.363Z,50.37
2017-12-01T06:20:29.870Z,34.70
2017-12-01T06:22:57.370Z,31.87
2017-12-01T06:25:24.874Z,34.10
2017-12-01T06:27:53.143Z,44.07
2017-12-01T06:30:21.415Z,32.97
2017-12-01T06:32:48.931Z,28.33
2017-12-01T06:35:16.458Z,49.07
2017-12-01T06:37:43.961Z,55.17
2017-12-01T06:40:11.514Z,50.47
2017-12-01T06:42:39.009Z,37.57
2017-12-01T06:45:07.279Z,76.63
2017-12-01T06:47:35.545Z,70.87
2017-12-01T06:50:03.821Z,42.70
2017-12-01T06:52:31.905Z,50.30
2017-12-01T06:54:59.408Z,39.90
2017-12-01T06:57:26.921Z,95.77
2017-12-01T06:59:55.190Z,69.30
2017-12-01T07:02:23.461Z,143.23
2017-12-01T07:04:51.754Z,135.37
2017-12-01T07:07:19.250Z,98.67
2017-12-01T07:09:46.719Z,78.07
2017-12-01T07:12:14.203Z,62.23
2017-12-01T07:14:43.471Z,94.03
2017-12-01T07:17:11.002Z,184.07
2017-12-01T07:19:38.539Z,56.77
2017-12-01T07:22:06.168Z,88.80
2017-12-01T07:24:34.434Z,70.67
2017-12-01T07:27:08.007Z,52.50
2017-12-01T07:29:35.513Z,104.10
2017-12-01T07:32:03.017Z,77.60
2017-12-01T07:34:30.673Z,81.10
2017-12-01T07:36:58.164Z,62.77
2017-12-01T07:39:25.692Z,92.67
2017-12-01T07:41:53.191Z,64.07
2017-12-01T07:44:32.324Z,64.30
2017-12-01T07:47:00.160Z,67.07
2017-12-01T07:49:27.658Z,118.77
2017-12-01T07:51:55.931Z,81.10
2017-12-01T07:54:25.240Z,140.93
2017-12-01T07:56:53.519Z,116.47
2017-12-01T07:59:21.864Z,181.80
2017-12-01T08:01:49.918Z,110.83
2017-12-01T08:04:17.425Z,76.33
2017-12-01T08:06:45.684Z,99.67
2017-12-01T08:09:13.982Z,239.80
2017-12-01T08:11:41.483Z,155.23
2017-12-01T08:14:08.996Z,80.73
2017-12-01T08:16:49.109Z,81.50
2017-12-01T08:19:21.368Z,141.83
2017-12-01T08:22:00.766Z,90.17
2017-12-01T08:24:40.306Z,78.20
2017-12-01T08:27:07.810Z,79.30
2017-12-01T08:29:35.658Z,106.97
2017-12-01T08:32:03.261Z,101.47
2017-12-01T08:34:32.403Z,83.13
2017-12-01T08:36:59.895Z,85.40
2017-12-01T08:39:27.402Z,90.33
2017-12-01T08:41:54.958Z,116.00
2017-12-01T08:44:22.513Z,93.93
2017-12-01T08:46:50.003Z,96.93
2017-12-01T08:49:17.505Z,95.27
2017-12-01T08:51:45.790Z,65.57
2017-12-01T08:54:13.297Z,76.07
2017-12-01T08:56:40.775Z,71.80
2017-12-01T08:59:08.254Z,83.47
2017-12-01T09:01:36.499Z,60.93
2017-12-01T09:04:03.993Z,63.53
2017-12-01T09:06:32.234Z,58.00
2017-12-01T09:08:59.718Z,73.93
2017-12-01T09:11:27.981Z,58.40
2017-12-01T09:13:55.484Z,58.33
2017-12-01T09:16:22.992Z,61.13
2017-12-01T09:18:50.544Z,60.47
2017-12-01T09:21:18.018Z,70.20
2017-12-01T09:23:45.487Z,59.00
2017-12-01T09:26:13.732Z,70.37
2017-12-01T09:28:41.238Z,78.53
2017-12-01T09:31:08.738Z,69.23
2017-12-01T09:33:36.211Z,56.90
2017-12-01T09:36:03.717Z,48.13
2017-12-01T09:38:31.200Z,53.77
2017-12-01T09:40:58.698Z,66.03
2017-12-01T09:43:26.940Z,53.93
2017-12-01T09:45:54.431Z,58.27
2017-12-01T09:48:22.672Z,55.50
2017-12-01T09:50:50.169Z,43.33
2017-12-01T09:53:17.643Z,61.07
2017-12-01T09:55:45.119Z,52.63
2017-12-01T09:58:12.600Z,47.07
2017-12-01T10:00:40.076Z,55.90
2017-12-01T10:03:07.545Z,59.37
2017-12-01T10:05:35.016Z,56.53
2017-12-01T10:08:03.266Z,40.40
2017-12-01T10:10:30.735Z,41.73
2017-12-01T10:12:58.995Z,59.70
2017-12-01T10:15:27.231Z,42.57
2017-12-01T10:17:54.705Z,47.90
2017-12-01T10:20:22.179Z,46.37
2017-12-01T10:22:49.667Z,49.90
2017-12-01T10:25:17.928Z,44.93
2017-12-01T10:27:46.198Z,38.73
2017-12-01T10:30:13.663Z,49.00
2017-12-01T10:32:41.916Z,40.07
2017-12-01T10:35:09.396Z,45.40
2017-12-01T10:37:36.880Z,47.87
2017-12-01T10:40:04.353Z,44.60
2017-12-01T10:42:32.766Z,53.93
2017-12-01T10:45:00.223Z,44.93
2017-12-01T10:47:27.704Z,46.83
2017-12-01T10:49:55.939Z,38.40
2017-12-01T10:52:23.435Z,41.77
2017-12-01T10:54:51.691Z,41.23
2017-12-01T10:57:19.173Z,37.37
2017-12-01T10:59:47.432Z,42.40
2017-12-01T11:02:14.917Z,45.67
2017-12-01T11:04:43.228Z,44.97
2017-12-01T11:07:10.715Z,39.13
2017-12-01T11:09:38.313Z,49.17
2017-12-01T11:12:05.826Z,45.77
2017-12-01T11:14:33.337Z,45.50
2017-12-01T11:17:00.869Z,52.10
2017-12-01T11:19:29.137Z,50.57
2017-12-01T11:21:56.711Z,44.40
2017-12-01T11:24:24.976Z,42.50
2017-12-01T11:26:52.464Z,47.90
2017-12-01T11:29:19.966Z,50.93
2017-12-01T11:31:47.444Z,46.50
2017-12-01T11:34:14.927Z,46.77
2017-12-01T11:36:43.189Z,47.13
2017-12-01T11:39:11.448Z,50.23
2017-12-01T11:41:38.931Z,57.07
2017-12-01T11:44:07.190Z,61.50
2017-12-01T11:46:34.659Z,46.30
2017-12-01T11:49:02.921Z,52.93
2017-12-01T11:51:31.872Z,47.63
2017-12-01T11:53:59.347Z,47.10
2017-12-01T11:56:26.833Z,49.07
2017-12-01T11:58:55.078Z,43.17
2017-12-01T12:01:22.567Z,50.80
2017-12-01T12:03:50.856Z,52.27
2017-12-01T12:06:18.373Z,53.63
2017-12-01T12:08:46.701Z,51.27
2017-12-01T12:11:14.191Z,47.10
2017-12-01T12:13:41.695Z,55.43
2017-12-01T12:16:09.959Z,46.77
2017-12-01T12:18:37.439Z,49.23
2017-12-01T12:21:04.925Z,52.67
2017-12-01T12:23:33.167Z,49.10
2017-12-01T12:26:01.536Z,53.73
2017-12-01T12:28:29.784Z,50.97
2017-12-01T12:30:57.264Z,50.13
2017-12-01T12:33:25.511Z,45.20
2017-12-01T12:35:52.980Z,49.80
2017-12-01T12:38:20.448Z,53.37
2017-12-01T12:40:47.920Z,46.90
2017-12-01T12:43:16.181Z,46.97
2017-12-01T12:45:44.332Z,49.00
2017-12-01T12:48:12.644Z,52.20
2017-12-01T12:50:40.887Z,46.60
2017-12-01T12:53:08.382Z,51.10
2017-12-01T12:55:35.868Z,49.17
2017-12-01T12:58:03.355Z,45.00
2017-12-01T13:00:31.938Z,55.10
2017-12-01T13:03:00.247Z,54.63
2017-12-01T13:05:28.509Z,52.50
2017-12-01T13:07:56.000Z,54.50
2017-12-01T13:10:23.478Z,61.70
2017-12-01T13:12:50.979Z,52.37
2017-12-01T13:15:18.588Z,48.43
2017-12-01T13:17:46.074Z,53.03
2017-12-01T13:20:13.540Z,53.63
2017-12-01T13:22:41.036Z,59.47
2017-12-01T13:25:09.268Z,55.20
2017-12-01T13:27:36.756Z,58.10
2017-12-01T13:30:05.073Z,60.87
2017-12-01T13:32:32.619Z,59.20
2017-12-01T13:35:00.104Z,60.03
2017-12-01T13:37:27.596Z,57.70
2017-12-01T13:39:55.068Z,58.47
2017-12-01T13:42:23.351Z,68.97
2017-12-01T13:44:50.851Z,61.67
2017-12-01T13:47:18.338Z,61.23
2017-12-01T13:49:45.811Z,63.03
2017-12-01T13:52:14.089Z,62.37
2017-12-01T13:54:42.341Z,56.30
2017-12-01T13:57:09.811Z,59.83
2017-12-01T13:59:38.051Z,70.57
2017-12-01T14:02:05.535Z,60.43
2017-12-01T14:04:33.735Z,69.97
2017-12-01T14:07:01.970Z,60.13
2017-12-01T14:09:29.470Z,65.03
2017-12-01T14:11:56.962Z,63.17
2017-12-01T14:14:25.200Z,68.17
2017-12-01T14:16:52.677Z,64.03
2017-12-01T14:19:20.139Z,78.17
2017-12-01T14:21:47.603Z,75.30
2017-12-01T14:24:15.087Z,71.30
2017-12-01T14:26:42.671Z,68.00
2017-12-01T14:29:11.758Z,67.53
2017-12-01T14:31:40.013Z,61.03
2017-12-01T14:34:07.472Z,73.00
2017-12-01T14:36:34.927Z,67.97
2017-12-01T14:39:02.424Z,68.53
2017-12-01T14:41:30.680Z,70.03
2017-12-01T14:43:58.162Z,66.47
2017-12-01T14:46:25.662Z,69.70
2017-12-01T14:48:53.133Z,71.10
2017-12-01T14:51:20.615Z,67.20
2017-12-01T14:53:48.865Z,73.03
2017-12-01T14:56:16.344Z,72.37
2017-12-01T14:58:43.815Z,69.40
2017-12-01T15:01:12.992Z,74.17
2017-12-01T15:03:40.469Z,61.33
2017-12-01T15:06:08.737Z,72.43
2017-12-01T15:08:36.983Z,70.10
2017-12-01T15:11:04.469Z,71.43
2017-12-01T15:13:32.739Z,69.57
2017-12-01T15:16:00.987Z,72.33
2017-12-01T15:18:28.511Z,62.70
2017-12-01T15:20:55.988Z,68.57
2017-12-01T15:23:24.281Z,68.50
2017-12-01T15:25:51.765Z,73.43
2017-12-01T15:28:20.075Z,72.00
2017-12-01T15:30:47.573Z,74.27
2017-12-01T15:33:15.061Z,62.70
2017-12-01T15:35:43.068Z,75.80
2017-12-01T15:38:10.579Z,65.27
2017-12-01T15:40:38.854Z,75.67
2017-12-01T15:43:07.119Z,79.83
2017-12-01T15:45:34.623Z,83.37
2017-12-01T15:48:02.147Z,78.00
2017-12-01T15:50:30.405Z,80.67
2017-12-01T15:52:57.911Z,78.47
2017-12-01T15:55:25.384Z,75.57
2017-12-01T15:57:52.870Z,64.27
2017-12-01T16:00:20.396Z,85.23
2017-12-01T16:02:47.884Z,68.33
2017-12-01T16:05:15.391Z,65.10
2017-12-01T16:07:42.885Z,67.50
2017-12-01T16:10:10.400Z,61.83
2017-12-01T16:12:37.919Z,60.00
2017-12-01T16:15:05.407Z,86.00
2017-12-01T16:17:33.665Z,81.30
2017-12-01T16:20:01.937Z,75.43
2017-12-01T16:22:29.429Z,65.63
2017-12-01T16:24:56.921Z,69.03
2017-12-01T16:27:24.434Z,66.03
2017-12-01T16:29:51.941Z,70.67
2017-12-01T16:32:19.442Z,61.93
2017-12-01T16:34:47.697Z,65.80
2017-12-01T16:37:15.202Z,64.53
2017-12-01T16:39:42.739Z,75.13
2017-12-01T16:42:11.042Z,76.80
2017-12-01T16:44:38.572Z,82.77
2017-12-01T16:47:07.741Z,76.07
2017-12-01T16:49:36.526Z,83.23
2017-12-01T16:52:04.031Z,73.13
2017-12-01T16:54:31.536Z,69.50
2017-12-01T16:56:59.059Z,72.90
2017-12-01T16:59:26.583Z,80.10
2017-12-01T17:01:54.858Z,72.03
2017-12-01T17:04:23.129Z,70.90
2017-12-01T17:06:51.394Z,81.20
2017-12-01T17:09:18.884Z,72.93
2017-12-01T17:11:46.368Z,76.23
2017-12-01T17:14:13.880Z,64.67
2017-12-01T17:16:43.041Z,80.13
2017-12-01T17:19:10.559Z,63.70
2017-12-01T17:21:38.066Z,73.47
2017-12-01T17:24:05.608Z,77.17
2017-12-01T17:26:33.255Z,80.93
2017-12-01T17:29:00.742Z,74.60
2017-12-01T17:31:28.216Z,78.43
2017-12-01T17:33:55.682Z,79.93
2017-12-01T17:36:23.932Z,65.77
2017-12-01T17:38:51.449Z,79.00
2017-12-01T17:41:18.919Z,76.60
2017-12-01T17:43:47.291Z,100.97
2017-12-01T17:46:14.794Z,80.73
2017-12-01T17:48:42.271Z,80.10
2017-12-01T17:51:10.533Z,82.57
2017-12-01T17:53:38.841Z,70.60
2017-12-01T17:56:06.313Z,93.93
2017-12-01T17:58:34.433Z,101.83
2017-12-01T18:01:01.921Z,99.67
2017-12-01T18:03:29.468Z,87.77
2017-12-01T18:05:56.891Z,101.23
2017-12-01T18:08:24.381Z,77.70
2017-12-01T18:10:53.275Z,75.17
2017-12-01T18:13:20.842Z,68.47
2017-12-01T18:15:48.366Z,71.17
2017-12-01T18:18:16.630Z,76.20
2017-12-01T18:20:44.295Z,68.10
2017-12-01T18:23:11.953Z,67.63
2017-12-01T18:25:40.226Z,52.90
2017-12-01T18:28:08.583Z,60.87
2017-12-01T18:30:37.431Z,73.07
2017-12-01T18:33:05.703Z,86.20
2017-12-01T18:35:33.953Z,78.40
2017-12-01T18:38:01.449Z,83.60
2017-12-01T18:40:28.936Z,75.90
2017-12-01T18:42:56.415Z,65.50
2017-12-01T18:45:23.920Z,66.30
2017-12-01T18:47:51.409Z,68.93
2017-12-01T18:50:18.907Z,74.13
2017-12-01T18:52:46.402Z,63.80
2017-12-01T18:55:13.892Z,62.17
2017-12-01T18:57:41.375Z,78.87
2017-12-01T19:00:08.843Z,78.57
2017-12-01T19:02:36.315Z,65.57
2017-12-01T19:05:03.801Z,66.10
2017-12-01T19:07:31.289Z,67.70
2017-12-01T19:09:58.779Z,61.80
2017-12-01T19:12:27.047Z,63.67
2017-12-01T19:14:55.333Z,71.23
2017-12-01T19:17:22.789Z,70.37
2017-12-01T19:19:51.052Z,65.10
2017-12-01T19:22:19.446Z,59.17
2017-12-01T19:24:47.103Z,66.03
2017-12-01T19:27:15.339Z,58.20
2017-12-01T19:29:42.837Z,62.10
2017-12-01T19:32:11.093Z,57.77
2017-12-01T19:34:38.584Z,71.77
2017-12-01T19:37:06.063Z,79.83
2017-12-01T19:39:33.530Z,65.23
2017-12-01T19:42:01.005Z,72.47
2017-12-01T19:44:29.275Z,83.07
2017-12-01T19:46:56.757Z,73.57
2017-12-01T19:49:25.044Z,93.07
2017-12-01T19:51:53.296Z,106.30
2017-12-01T19:54:20.817Z,126.57
2017-12-01T19:56:48.311Z,118.30
2017-12-01T19:59:15.795Z,129.90
2017-12-01T20:01:44.032Z,133.13
2017-12-01T20:04:11.508Z,107.90
2017-12-01T20:06:38.973Z,117.90
2017-12-01T20:09:07.217Z,111.93
2017-12-01T20:11:34.696Z,139.20
2017-12-01T20:14:02.162Z,141.03
2017-12-01T20:16:34.603Z,130.20
2017-12-01T20:19:02.120Z,129.77
2017-12-01T20:21:29.658Z,109.63
2017-12-01T20:23:57.927Z,101.37
2017-12-01T20:26:26.178Z,105.70
2017-12-01T20:28:54.941Z,97.83
2017-12-01T20:31:22.460Z,102.70
2017-12-01T20:33:50.733Z,98.83
2017-12-01T20:36:18.990Z,87.53
2017-12-01T20:38:47.263Z,85.67
2017-12-01T20:41:14.768Z,76.57
2017-12-01T20:43:42.876Z,85.60
2017-12-01T20:46:10.376Z,87.23
2017-12-01T20:48:37.883Z,104.50
2017-12-01T20:51:05.395Z,95.03
2017-12-01T20:53:32.905Z,89.97
2017-12-01T20:56:00.451Z,96.90
2017-12-01T20:58:27.934Z,89.87
2017-12-01T21:00:55.422Z,76.60
2017-12-01T21:03:22.980Z,75.07
2017-12-01T21:05:51.246Z,84.53
2017-12-01T21:08:19.504Z,80.63
2017-12-01T21:10:46.980Z,82.03
2017-12-01T21:13:15.239Z,90.77
2017-12-01T21:15:42.720Z,87.13
2017-12-01T21:18:10.980Z,80.37
2017-12-01T21:20:39.239Z,70.30
2017-12-01T21:23:06.724Z,69.40
2017-12-01T21:25:34.992Z,77.60
2017-12-01T21:28:02.463Z,75.03
2017-12-01T21:30:29.966Z,67.47
2017-12-01T21:32:57.431Z,73.17
2017-12-01T21:35:24.968Z,67.63
2017-12-01T21:37:52.607Z,82.77
2017-12-01T21:40:20.087Z,67.90
2017-12-01T21:42:47.584Z,61.17
2017-12-01T21:45:15.156Z,71.27
2017-12-01T21:47:43.407Z,59.17
2017-12-01T21:50:11.225Z,59.93
2017-12-01T21:52:38.704Z,127.63
2017-12-01T21:55:06.384Z,107.33
2017-12-01T21:57:33.868Z,105.20
2017-12-01T22:00:02.116Z,112.33
2017-12-01T22:02:29.613Z,98.03
2017-12-01T22:04:57.942Z,100.37
2017-12-01T22:07:25.449Z,84.43
2017-12-01T22:09:53.705Z,53.43
2017-12-01T22:12:22.026Z,75.83
2017-12-01T22:14:49.561Z,230.60
2017-12-01T22:17:17.839Z,42.30
2017-12-01T22:19:45.352Z,39.13
2017-12-01T22:22:13.010Z,41.47
2017-12-01T22:24:40.506Z,64.80
2017-12-01T22:27:08.774Z,50.83
2017-12-01T22:29:37.047Z,32.70
2017-12-01T22:32:05.298Z,33.77
2017-12-01T22:34:32.767Z,36.53
2017-12-01T22:37:00.365Z,131.67
2017-12-01T22:39:27.846Z,283.87
2017-12-01T22:41:55.323Z,32.77
2017-12-01T22:44:22.809Z,87.23
2017-12-01T22:46:51.070Z,35.13
2017-12-01T22:49:18.666Z,49.30
2017-12-01T22:51:46.175Z,55.47
2017-12-01T22:54:13.663Z,38.30
2017-12-01T22:56:41.916Z,43.60
2017-12-01T22:59:09.399Z,49.33
2017-12-01T23:01:37.647Z,47.77
2017-12-01T23:04:05.133Z,34.43
2017-12-01T23:06:33.397Z,34.43
2017-12-01T23:09:01.652Z,32.10
2017-12-01T23:11:29.140Z,31.73
2017-12-01T23:13:57.383Z,37.73
2017-12-01T23:16:24.859Z,51.50
2017-12-01T23:18:53.120Z,44.50
2017-12-01T23:21:21.331Z,68.10
2017-12-01T23:23:49.564Z,36.30
2017-12-01T23:26:17.057Z,35.20
2017-12-01T23:28:45.304Z,152.60
2017-12-01T23:31:14.096Z,45.83
2017-12-01T23:33:41.599Z,97.93
2017-12-01T23:36:09.096Z,92.77
2017-12-01T23:38:38.092Z,158.23
2017-12-01T23:41:05.596Z,183.50
2017-12-01T23:43:33.093Z,185.50
2017-12-01T23:46:01.368Z,44.10
2017-12-01T23:48:28.892Z,127.50
2017-12-01T23:50:56.379Z,183.23
2017-12-01T23:53:23.860Z,155.37
2017-12-01T23:55:51.371Z,180.77
2017-12-01T23:58:18.875Z,283.17
